< < Back
Terminal Aerodrome Forecast


Current Version              Previous Versions:   1  2  3  4  5  6  7  8  9  

Terminal Aerodrome Forecast

170
FTUS44 KBMX 302320
TAFANB
TAF
KANB 302320Z 0100/0124 25007KT P6SM BKN250
     FM010900 00000KT 4SM BR OVC250
     FM011500 24008KT P6SM SCT050
     FM011800 26010KT P6SM VCTS SCT050CB BKN250=

Latest METAR

399
SAUS70 KWBC 010400 RRL
MTRANB
METAR KANB 010353Z AUTO 22006KT 10SM CLR 21/18 A3005 RMK AO2 SLP170
T02110178


USA.gov is the U.S. government's official web portal to all federal, state and local government web resources and services.